Time;durP1;ratioP1;P1;durP2;ratioP2;P2;SDS_P1;SDS_P2;PMS_P1;PMS_P2;Temp;Humidity;BMP_temperature;BMP_pressure;BME280_temperature;BME280_humidity;BME280_pressure;Samples;Min_cycle;Max_cycle;Signal;HPM_P1;HPM_P2
2024/03/25 00:01:04;;;;;;;0.57;0.20;;;4.70;99.90;;;;;;5047391;28;20202;-70
2024/03/25 00:03:31;;;;;;;2.00;0.50;;;4.80;99.90;;;;;;5051720;28;20332;-70
2024/03/25 00:05:58;;;;;;;2.83;0.40;;;4.70;99.90;;;;;;5055285;28;20257;-71
2024/03/25 00:08:25;;;;;;;0.80;0.43;;;4.60;99.90;;;;;;5055024;28;20203;-70
2024/03/25 00:10:51;;;;;;;2.00;0.30;;;4.80;99.90;;;;;;5040682;28;20294;-70
2024/03/25 00:13:20;;;;;;;0.60;0.40;;;4.60;99.90;;;;;;5047083;28;20667;-70
2024/03/25 00:15:46;;;;;;;0.30;0.30;;;4.50;99.90;;;;;;5039037;28;20282;-70
2024/03/25 00:18:13;;;;;;;1.90;0.40;;;4.50;99.90;;;;;;5039847;28;20261;-69
2024/03/25 00:20:39;;;;;;;0.60;0.33;;;4.40;99.90;;;;;;5045194;28;20204;-70
2024/03/25 00:23:08;;;;;;;0.50;0.50;;;4.30;99.90;;;;;;5035117;28;20267;-70
2024/03/25 00:25:34;;;;;;;1.70;0.40;;;4.30;99.90;;;;;;5037138;28;20279;-70
2024/03/25 00:28:01;;;;;;;0.97;0.50;;;4.30;99.90;;;;;;5042739;28;20200;-70
2024/03/25 00:30:27;;;;;;;1.03;0.30;;;4.10;99.90;;;;;;5043552;28;20263;-70
2024/03/25 00:32:55;;;;;;;2.30;0.50;;;4.00;99.90;;;;;;5048840;28;20668;-71
2024/03/25 00:35:21;;;;;;;0.50;0.40;;;4.10;99.90;;;;;;5052994;28;20642;-70
2024/03/25 00:37:48;;;;;;;0.97;0.47;;;4.00;99.90;;;;;;5041236;28;20196;-70
2024/03/25 00:40:16;;;;;;;0.53;0.50;;;3.90;99.90;;;;;;5034797;28;20205;-71
2024/03/25 00:42:43;;;;;;;0.30;0.27;;;4.00;99.90;;;;;;5034847;28;20220;-71
2024/03/25 00:45:09;;;;;;;1.37;0.40;;;3.90;99.90;;;;;;5044735;28;20632;-70
2024/03/25 00:47:36;;;;;;;1.90;0.43;;;3.90;99.90;;;;;;5034217;28;20219;-70
2024/03/25 00:50:03;;;;;;;0.40;0.40;;;3.80;99.90;;;;;;5036282;28;20212;-70
2024/03/25 00:52:30;;;;;;;2.13;0.43;;;3.80;99.90;;;;;;5041956;28;20211;-71
2024/03/25 00:54:56;;;;;;;1.50;0.30;;;3.70;99.90;;;;;;5035219;28;20271;-70
2024/03/25 00:57:24;;;;;;;0.30;0.30;;;3.80;99.90;;;;;;5033670;28;20204;-70
2024/03/25 00:59:50;;;;;;;0.63;0.50;;;3.80;99.90;;;;;;5046670;28;20254;-70
2024/03/25 01:02:17;;;;;;;1.23;0.60;;;3.80;99.90;;;;;;5052000;28;20196;-70
2024/03/25 01:04:43;;;;;;;0.87;0.37;;;3.80;99.90;;;;;;5042420;28;20231;-71
2024/03/25 01:07:10;;;;;;;0.30;0.30;;;3.80;99.90;;;;;;5033325;28;20196;-70
2024/03/25 01:09:36;;;;;;;2.33;0.53;;;3.70;99.90;;;;;;5045836;28;20199;-70
2024/03/25 01:12:04;;;;;;;0.47;0.30;;;3.80;99.90;;;;;;5051280;28;20253;-70
2024/03/25 01:14:31;;;;;;;0.73;0.23;;;3.80;99.90;;;;;;5047651;28;20216;-70
2024/03/25 01:16:58;;;;;;;0.53;0.40;;;3.70;99.90;;;;;;5044753;28;20199;-69
2024/03/25 01:19:24;;;;;;;1.47;0.40;;;3.60;99.90;;;;;;5037308;28;20251;-70
2024/03/25 01:21:51;;;;;;;2.00;0.60;;;3.60;99.90;;;;;;5038340;28;20205;-70
2024/03/25 01:24:17;;;;;;;0.60;0.40;;;3.60;99.90;;;;;;5033880;28;20227;-70
2024/03/25 01:26:44;;;;;;;2.30;0.57;;;3.60;99.90;;;;;;5036920;28;20196;-70
2024/03/25 01:29:10;;;;;;;1.47;0.70;;;3.60;99.90;;;;;;5045412;28;20212;-70
2024/03/25 01:31:38;;;;;;;0.80;0.40;;;3.60;99.90;;;;;;5038895;28;20212;-70
2024/03/25 01:34:05;;;;;;;1.40;0.40;;;3.60;99.90;;;;;;5042964;28;20219;-70
2024/03/25 01:36:33;;;;;;;2.20;0.33;;;3.60;99.90;;;;;;5050023;28;20686;-69
2024/03/25 01:38:59;;;;;;;1.63;0.30;;;3.70;99.90;;;;;;5043707;28;20227;-70
2024/03/25 01:41:26;;;;;;;0.80;0.40;;;3.50;99.90;;;;;;5038443;28;20204;-69
2024/03/25 01:43:52;;;;;;;1.40;0.30;;;3.50;99.90;;;;;;5051338;28;20227;-70
2024/03/25 01:46:20;;;;;;;2.10;0.57;;;3.70;99.90;;;;;;5039757;28;20242;-70
2024/03/25 01:48:52;;;;;;;0.67;0.30;;;3.60;99.90;;;;;;5047907;28;20239;-70
2024/03/25 01:51:21;;;;;;;0.77;0.57;;;3.50;99.90;;;;;;5036450;28;20204;-70
2024/03/25 01:53:49;;;;;;;2.40;0.50;;;3.50;99.90;;;;;;5043577;28;20221;-70
2024/03/25 01:56:17;;;;;;;1.23;1.07;;;3.60;99.90;;;;;;5037060;28;20211;-70
2024/03/25 01:58:43;;;;;;;2.63;0.60;;;3.60;99.90;;;;;;5033243;28;20228;-70
2024/03/25 02:01:13;;;;;;;0.77;0.77;;;3.60;99.90;;;;;;5034589;28;20206;-70
2024/03/25 02:03:40;;;;;;;1.60;0.63;;;3.60;99.90;;;;;;5050470;28;20289;-70
2024/03/25 02:06:14;;;;;;;1.20;0.50;;;3.60;99.90;;;;;;5041925;28;20643;-69
2024/03/25 02:08:41;;;;;;;1.50;0.90;;;3.60;99.90;;;;;;5035910;28;20204;-70
2024/03/25 02:11:08;;;;;;;1.67;0.40;;;3.60;99.90;;;;;;5033171;28;20197;-70
2024/03/25 02:13:35;;;;;;;0.50;0.50;;;3.70;99.90;;;;;;5033330;28;20764;-71
2024/03/25 02:16:02;;;;;;;0.70;0.50;;;3.70;99.90;;;;;;5036955;28;20196;-70
2024/03/25 02:18:30;;;;;;;2.43;0.57;;;3.70;99.90;;;;;;5043368;28;20577;-70
2024/03/25 02:20:58;;;;;;;1.50;0.53;;;3.60;99.90;;;;;;5034453;28;20368;-70
2024/03/25 02:23:25;;;;;;;0.50;0.50;;;3.70;99.90;;;;;;5032703;28;20777;-70
2024/03/25 02:25:54;;;;;;;0.90;0.40;;;3.70;99.90;;;;;;5034423;28;20271;-70
2024/03/25 02:28:21;;;;;;;0.50;0.50;;;3.60;99.90;;;;;;5044054;28;20219;-70
2024/03/25 02:30:48;;;;;;;0.40;0.40;;;3.70;99.90;;;;;;5033441;28;20606;-69
2024/03/25 02:33:14;;;;;;;1.33;0.50;;;3.70;99.90;;;;;;5032847;28;20270;-69
2024/03/25 02:35:43;;;;;;;0.50;0.50;;;3.60;99.90;;;;;;5036399;28;20787;-70
2024/03/25 02:38:10;;;;;;;2.90;0.50;;;3.70;99.90;;;;;;5037032;28;20220;-70
2024/03/25 02:40:37;;;;;;;0.77;0.60;;;3.60;99.90;;;;;;5051104;28;20282;-70
2024/03/25 02:43:07;;;;;;;0.40;0.30;;;3.50;99.90;;;;;;5049532;28;20209;-71
2024/03/25 02:45:34;;;;;;;0.30;0.30;;;3.50;99.90;;;;;;5040883;28;20261;-71
2024/03/25 02:48:00;;;;;;;0.33;0.33;;;3.50;99.90;;;;;;5051023;28;20273;-70
2024/03/25 02:50:27;;;;;;;1.33;0.40;;;3.50;99.90;;;;;;5035982;28;20610;-70
2024/03/25 02:52:53;;;;;;;0.90;0.70;;;3.40;99.90;;;;;;5053855;28;20208;-70
2024/03/25 02:55:20;;;;;;;1.77;1.10;;;3.50;99.90;;;;;;5050779;28;20247;-70
2024/03/25 02:57:48;;;;;;;1.10;0.70;;;3.40;99.90;;;;;;5051865;28;20243;-70
2024/03/25 03:00:17;;;;;;;2.73;0.70;;;3.40;99.90;;;;;;5049520;28;20200;-70
2024/03/25 03:02:43;;;;;;;2.20;0.70;;;3.60;99.90;;;;;;5041398;28;20207;-70
2024/03/25 03:05:10;;;;;;;0.73;0.43;;;3.50;99.90;;;;;;5032265;28;20233;-70
2024/03/25 03:07:36;;;;;;;2.63;0.50;;;3.50;99.90;;;;;;5031872;28;20207;-69
2024/03/25 03:10:03;;;;;;;0.60;0.60;;;3.50;99.90;;;;;;5032371;28;20571;-70
2024/03/25 03:12:29;;;;;;;0.50;0.50;;;3.50;99.90;;;;;;5032527;28;20208;-72
2024/03/25 03:14:56;;;;;;;0.70;0.50;;;3.50;99.90;;;;;;5046436;28;20219;-70
2024/03/25 03:17:23;;;;;;;1.57;0.60;;;3.40;99.90;;;;;;5047955;28;20203;-69
2024/03/25 03:19:50;;;;;;;0.60;0.60;;;3.50;99.90;;;;;;5052072;28;20206;-70
2024/03/25 03:22:16;;;;;;;2.93;0.93;;;3.50;99.90;;;;;;5052176;28;20199;-70
2024/03/25 03:24:43;;;;;;;0.87;0.87;;;3.50;99.90;;;;;;5052063;28;20231;-70
2024/03/25 03:27:10;;;;;;;2.10;0.90;;;3.30;99.90;;;;;;5036243;28;20208;-70
2024/03/25 03:29:37;;;;;;;0.80;0.60;;;3.40;99.90;;;;;;5032288;28;20247;-70
2024/03/25 03:32:03;;;;;;;1.27;1.00;;;3.40;99.90;;;;;;5032340;28;20220;-70
2024/03/25 03:34:31;;;;;;;1.17;0.80;;;3.40;99.90;;;;;;5031169;28;20220;-69
2024/03/25 03:36:57;;;;;;;0.50;0.50;;;3.50;99.90;;;;;;5031387;28;20217;-69
2024/03/25 03:39:24;;;;;;;1.93;0.60;;;3.60;99.90;;;;;;5039382;28;20202;-70
2024/03/25 03:41:50;;;;;;;1.00;0.90;;;3.60;99.90;;;;;;5031905;28;20259;-70
2024/03/25 03:44:17;;;;;;;0.90;0.90;;;3.60;99.90;;;;;;5045623;28;20216;-70
2024/03/25 03:46:43;;;;;;;1.47;0.67;;;3.60;99.90;;;;;;5041694;28;20207;-69
2024/03/25 03:49:10;;;;;;;1.30;0.97;;;3.50;99.90;;;;;;5051986;28;20204;-70
2024/03/25 03:51:37;;;;;;;2.40;0.87;;;3.60;99.90;;;;;;5049377;28;20211;-70
2024/03/25 03:54:04;;;;;;;1.13;0.87;;;3.40;99.90;;;;;;5037025;28;20220;-70
2024/03/25 03:56:30;;;;;;;1.00;0.90;;;3.50;99.90;;;;;;5050264;28;20261;-70
2024/03/25 03:58:57;;;;;;;1.70;1.20;;;3.50;99.90;;;;;;5050879;28;20195;-70
2024/03/25 04:01:23;;;;;;;2.80;1.37;;;3.50;99.90;;;;;;5051500;28;20719;-70
2024/03/25 04:03:51;;;;;;;1.10;1.00;;;3.50;99.90;;;;;;5071982;22;20330;-63
2024/03/25 04:06:17;;;;;;;1.63;0.77;;;3.50;99.90;;;;;;5043251;28;20235;-63
2024/03/25 04:08:45;;;;;;;1.00;0.90;;;3.50;99.90;;;;;;5030620;28;20211;-64
2024/03/25 04:11:11;;;;;;;3.80;1.07;;;3.50;99.90;;;;;;5038360;28;20197;-63
2024/03/25 04:13:38;;;;;;;1.07;0.80;;;3.50;99.90;;;;;;5049355;28;20191;-62
2024/03/25 04:16:06;;;;;;;2.30;0.93;;;3.40;99.90;;;;;;5051058;28;20221;-62
2024/03/25 04:18:33;;;;;;;2.07;1.17;;;3.30;99.90;;;;;;5049243;28;20591;-62
2024/03/25 04:21:00;;;;;;;0.70;0.70;;;3.30;99.90;;;;;;5052383;28;20289;-62
2024/03/25 04:23:27;;;;;;;1.90;0.60;;;3.20;99.90;;;;;;5050856;28;20680;-62
2024/03/25 04:25:54;;;;;;;0.57;0.53;;;3.30;99.90;;;;;;5050802;28;20274;-62
2024/03/25 04:28:22;;;;;;;1.13;0.50;;;3.40;99.90;;;;;;5050168;28;20215;-62
2024/03/25 04:30:52;;;;;;;1.07;0.60;;;3.30;99.90;;;;;;5050937;28;20838;-62
2024/03/25 04:33:20;;;;;;;0.60;0.60;;;3.20;99.90;;;;;;5051217;28;20725;-62
2024/03/25 04:35:46;;;;;;;0.70;0.70;;;3.40;99.90;;;;;;5050780;28;20223;-62
